createdAt,value
2019-05-12T00:03:43.316Z,97246.62
2019-05-12T00:08:38.204Z,97246.65
2019-05-12T00:13:33.097Z,97247.63
2019-05-12T00:18:28.482Z,97246.44
2019-05-12T00:23:27.716Z,97245.16
2019-05-12T00:28:20.115Z,97264.48
2019-05-12T00:33:14.697Z,97260.75
2019-05-12T00:38:09.579Z,97261.86
2019-05-12T00:43:04.259Z,97272.63
2019-05-12T00:47:58.845Z,97283.30
2019-05-12T00:52:53.558Z,97287.11
2019-05-12T00:57:48.584Z,97289.63
2019-05-12T01:02:43.421Z,97282.49
2019-05-12T01:07:38.357Z,97291.34
2019-05-12T01:12:32.973Z,97297.58
2019-05-12T01:17:28.237Z,97292.84
2019-05-12T01:22:23.029Z,97318.33
2019-05-12T01:27:18.103Z,97324.16
2019-05-12T01:32:14.515Z,97338.12
2019-05-12T01:37:23.749Z,97346.09
2019-05-12T01:42:18.318Z,97364.89
2019-05-12T01:47:12.908Z,97375.15
2019-05-12T01:52:08.681Z,97379.66
2019-05-12T01:57:03.443Z,97393.05
2019-05-12T02:01:58.243Z,97413.94
2019-05-12T02:06:53.077Z,97420.58
2019-05-12T02:11:48.312Z,97428.69
2019-05-12T02:16:43.009Z,97441.39
2019-05-12T02:21:38.225Z,97435.89
2019-05-12T02:26:33.157Z,97440.82
2019-05-12T02:31:29.411Z,97452.67
2019-05-12T02:36:25.756Z,97459.73
2019-05-12T02:41:20.332Z,97466.16
2019-05-12T02:46:15.728Z,97480.03
2019-05-12T02:51:15.232Z,97477.58
2019-05-12T02:56:14.979Z,97475.12
2019-05-12T03:01:09.719Z,97483.07
2019-05-12T03:06:05.628Z,97490.08
2019-05-12T03:11:00.564Z,97481.75
2019-05-12T03:15:55.206Z,97486.30
2019-05-12T03:20:49.809Z,97491.89
2019-05-12T03:25:45.603Z,97502.02
2019-05-12T03:30:41.221Z,97513.16
2019-05-12T03:35:42.403Z,97512.81
2019-05-12T03:40:37.461Z,97521.88
2019-05-12T03:45:28.797Z,97533.05
2019-05-12T03:50:24.376Z,97528.05
2019-05-12T03:55:34.432Z,97530.91
2019-05-12T04:00:16.205Z,97534.35
2019-05-12T04:05:11.314Z,97535.60
2019-05-12T04:10:08.184Z,97539.09
2019-05-12T04:15:05.205Z,97544.72
2019-05-12T04:19:59.081Z,97545.41
2019-05-12T04:24:55.067Z,97555.26
2019-05-12T04:29:50.161Z,97561.37
2019-05-12T04:34:44.868Z,97570.52
2019-05-12T04:39:39.411Z,97578.06
2019-05-12T04:44:34.708Z,97592.64
2019-05-12T04:49:29.574Z,97592.72
2019-05-12T04:54:24.851Z,97595.66
2019-05-12T04:59:19.604Z,97599.58
2019-05-12T05:04:15.457Z,97621.09
2019-05-12T05:09:10.456Z,97627.77
2019-05-12T05:14:05.781Z,97639.08
2019-05-12T05:19:00.356Z,97644.70
2019-05-12T05:23:54.948Z,97652.32
2019-05-12T05:28:49.536Z,97664.52
2019-05-12T05:33:44.147Z,97668.05
2019-05-12T05:38:38.738Z,97679.27
2019-05-12T05:43:33.398Z,97683.05
2019-05-12T05:48:27.971Z,97695.50
2019-05-12T05:53:24.270Z,97699.86
2019-05-12T05:58:18.883Z,97693.85
2019-05-12T06:03:22.259Z,97696.98
2019-05-12T06:08:15.151Z,97707.50
2019-05-12T06:13:06.158Z,97719.36
2019-05-12T06:18:00.751Z,97718.45
2019-05-12T06:22:57.615Z,97717.17
2019-05-12T06:28:00.090Z,97725.17
2019-05-12T06:32:51.783Z,97723.83
2019-05-12T06:37:44.547Z,97731.70
2019-05-12T06:42:40.639Z,97731.58
2019-05-12T06:47:39.377Z,97740.45
2019-05-12T06:52:33.576Z,97750.25
2019-05-12T06:57:28.873Z,97756.31
2019-05-12T07:02:24.588Z,97762.47
2019-05-12T07:07:19.543Z,97775.72
2019-05-12T07:12:14.124Z,97771.09
2019-05-12T07:17:23.879Z,97772.22
2019-05-12T07:22:22.590Z,97784.13
2019-05-12T07:27:14.624Z,97782.16
2019-05-12T07:32:16.404Z,97786.57
2019-05-12T07:37:06.725Z,97795.75
2019-05-12T07:42:05.982Z,97800.28
2019-05-12T07:47:00.658Z,97791.80
2019-05-12T07:51:55.224Z,97809.27
2019-05-12T07:56:49.828Z,97803.11
2019-05-12T08:01:51.753Z,97815.84
2019-05-12T08:06:46.040Z,97825.23
2019-05-12T08:11:38.895Z,97830.16
2019-05-12T08:16:36.775Z,97835.16
2019-05-12T08:21:37.030Z,97836.63
2019-05-12T08:26:26.109Z,97842.19
2019-05-12T08:31:23.513Z,97843.67
2019-05-12T08:36:17.033Z,97838.05
2019-05-12T08:41:11.636Z,97840.47
2019-05-12T08:46:11.953Z,97842.30
2019-05-12T08:51:07.095Z,97841.40
2019-05-12T08:55:58.938Z,97844.16
2019-05-12T09:00:54.897Z,97849.37
2019-05-12T09:05:50.584Z,97859.09
2019-05-12T09:10:45.282Z,97868.31
2019-05-12T09:15:39.890Z,97883.20
2019-05-12T09:20:40.041Z,97882.39
2019-05-12T09:25:34.073Z,97883.42
2019-05-12T09:30:30.859Z,97886.99
2019-05-12T09:35:28.666Z,97885.16
2019-05-12T09:40:22.676Z,97893.05
2019-05-12T09:45:18.298Z,97877.80
2019-05-12T09:50:15.999Z,97875.26
2019-05-12T09:55:09.696Z,97880.14
2019-05-12T10:00:09.536Z,97882.80
2019-05-12T10:05:05.499Z,97880.86
2019-05-12T10:10:00.132Z,97889.16
2019-05-12T10:14:54.705Z,97889.77
2019-05-12T10:19:56.289Z,97901.38
2019-05-12T10:24:55.164Z,97905.03
2019-05-12T10:29:43.743Z,97905.77
2019-05-12T10:34:40.346Z,97923.55
2019-05-12T10:39:34.709Z,97908.62
2019-05-12T10:44:37.736Z,97909.69
2019-05-12T10:49:25.664Z,97908.68
2019-05-12T10:54:20.246Z,97894.80
2019-05-12T10:59:28.897Z,97902.53
2019-05-12T11:04:11.153Z,97909.03
2019-05-12T11:09:08.359Z,97925.52
2019-05-12T11:14:03.944Z,97904.64
2019-05-12T11:19:00.331Z,97905.94
2019-05-12T11:23:55.264Z,97912.92
2019-05-12T11:28:49.889Z,97907.89
2019-05-12T11:33:44.473Z,97915.69
2019-05-12T11:38:39.068Z,97910.36
2019-05-12T11:43:33.886Z,97899.34
2019-05-12T11:48:28.470Z,97912.92
2019-05-12T11:53:30.519Z,97915.78
2019-05-12T11:58:19.375Z,97919.62
2019-05-12T12:03:17.841Z,97916.64
2019-05-12T12:08:10.321Z,97910.27
2019-05-12T12:13:04.957Z,97904.24
2019-05-12T12:18:03.832Z,97900.79
2019-05-12T12:23:00.250Z,97924.27
2019-05-12T12:27:53.704Z,97924.30
2019-05-12T12:32:50.466Z,97923.02
2019-05-12T12:37:45.004Z,97934.32
2019-05-12T12:42:44.135Z,97961.27
2019-05-12T12:47:43.556Z,97969.89
2019-05-12T12:52:33.617Z,97969.13
2019-05-12T12:57:28.242Z,97979.38
2019-05-12T13:02:24.751Z,97988.94
2019-05-12T13:07:19.149Z,97991.30
2019-05-12T13:12:19.111Z,97988.20
2019-05-12T13:17:10.076Z,98003.02
2019-05-12T13:22:08.932Z,97998.34
2019-05-12T13:27:03.457Z,98014.40
2019-05-12T13:31:57.310Z,98009.52
2019-05-12T13:36:54.393Z,98012.38
2019-05-12T13:41:50.415Z,98012.20
2019-05-12T13:46:48.777Z,98018.39
2019-05-12T13:51:43.127Z,98019.41
2019-05-12T13:56:37.194Z,98022.61
2019-05-12T14:01:39.880Z,98034.78
2019-05-12T14:06:32.193Z,98019.55
2019-05-12T14:11:24.430Z,98023.78
2019-05-12T14:16:19.058Z,98026.41
2019-05-12T14:21:14.075Z,98026.00
2019-05-12T14:26:09.409Z,98025.44
2019-05-12T14:31:04.315Z,98029.90
2019-05-12T14:35:58.922Z,98031.53
2019-05-12T14:40:53.771Z,98025.81
2019-05-12T14:45:48.600Z,98029.52
2019-05-12T14:50:44.122Z,98032.20
2019-05-12T14:55:38.872Z,98033.45
2019-05-12T15:00:34.174Z,98024.27
2019-05-12T15:05:29.346Z,98034.73
2019-05-12T15:10:23.960Z,98044.05
2019-05-12T15:15:20.702Z,98057.39
2019-05-12T15:20:15.221Z,98056.70
2019-05-12T15:25:09.945Z,98062.31
2019-05-12T15:30:18.965Z,98072.22
2019-05-12T15:35:04.484Z,98064.92
2019-05-12T15:39:59.147Z,98056.08
2019-05-12T15:44:53.841Z,98069.22
2019-05-12T15:49:48.459Z,98068.35
2019-05-12T15:54:47.148Z,98068.94
2019-05-12T15:59:39.359Z,98072.71
2019-05-12T16:04:42.497Z,98070.61
2019-05-12T16:09:30.263Z,98081.02
2019-05-12T16:14:24.857Z,98077.25
2019-05-12T16:19:19.534Z,98075.50
2019-05-12T16:24:15.654Z,98084.59
2019-05-12T16:29:10.561Z,98083.20
2019-05-12T16:34:06.110Z,98083.80
2019-05-12T16:39:01.057Z,98083.99
2019-05-12T16:43:55.716Z,98076.60
2019-05-12T16:48:56.163Z,98081.33
2019-05-12T16:53:46.610Z,98082.16
2019-05-12T16:58:43.247Z,98084.78
2019-05-12T17:03:37.505Z,98089.03
2019-05-12T17:08:34.263Z,98092.84
2019-05-12T17:13:28.489Z,98097.09
2019-05-12T17:18:24.687Z,98109.84
2019-05-12T17:23:19.567Z,98116.83
2019-05-12T17:28:14.155Z,98115.70
2019-05-12T17:33:15.906Z,98122.56
2019-05-12T17:38:05.904Z,98129.62
2019-05-12T17:43:09.240Z,98128.19
2019-05-12T17:48:02.979Z,98138.12
2019-05-12T17:52:58.529Z,98136.05
2019-05-12T17:57:50.320Z,98144.27
2019-05-12T18:02:49.326Z,98144.52
2019-05-12T18:07:44.358Z,98156.69
2019-05-12T18:12:44.516Z,98155.19
2019-05-12T18:17:39.126Z,98169.84
2019-05-12T18:22:31.235Z,98166.88
2019-05-12T18:27:25.844Z,98166.72
2019-05-12T18:32:20.425Z,98164.28
2019-05-12T18:37:15.038Z,98172.59
2019-05-12T18:42:09.649Z,98172.78
2019-05-12T18:47:04.861Z,98179.50
2019-05-12T18:51:59.453Z,98183.42
2019-05-12T18:57:02.414Z,98190.16
2019-05-12T19:01:50.464Z,98197.91
2019-05-12T19:06:45.158Z,98201.03
2019-05-12T19:11:41.956Z,98199.28
2019-05-12T19:16:36.063Z,98207.97
2019-05-12T19:21:30.663Z,98203.19
2019-05-12T19:26:25.321Z,98212.08
2019-05-12T19:31:19.925Z,98216.27
2019-05-12T19:36:14.532Z,98216.22
2019-05-12T19:41:09.126Z,98220.13
2019-05-12T19:46:04.889Z,98218.89
2019-05-12T19:51:10.055Z,98224.59
2019-05-12T19:55:56.044Z,98222.64
2019-05-12T20:00:50.650Z,98233.35
2019-05-12T20:05:45.239Z,98240.70
2019-05-12T20:10:44.612Z,98244.67
2019-05-12T20:15:40.948Z,98240.70
2019-05-12T20:20:36.639Z,98241.28
2019-05-12T20:25:28.847Z,98239.06
2019-05-12T20:30:24.107Z,98240.30
2019-05-12T20:35:19.078Z,98242.27
2019-05-12T20:40:13.906Z,98242.64
2019-05-12T20:45:09.736Z,98243.23
2019-05-12T20:50:07.824Z,98243.36
2019-05-12T20:55:03.657Z,98254.42
2019-05-12T21:00:04.690Z,98253.38
2019-05-12T21:05:01.155Z,98259.41
2019-05-12T21:09:51.198Z,98253.46
2019-05-12T21:14:51.285Z,98258.67
2019-05-12T21:19:55.626Z,98262.01
2019-05-12T21:24:39.484Z,98262.35
2019-05-12T21:29:34.395Z,98251.80
2019-05-12T21:34:28.982Z,98256.84
2019-05-12T21:39:24.205Z,98246.38
2019-05-12T21:44:18.860Z,98251.08
2019-05-12T21:49:15.600Z,98249.77
2019-05-12T21:54:09.768Z,98246.00
2019-05-12T21:59:04.594Z,98247.63
2019-05-12T22:04:02.563Z,98245.66
2019-05-12T22:09:01.111Z,98248.60
2019-05-12T22:13:59.545Z,98245.66
2019-05-12T22:18:56.104Z,98243.57
2019-05-12T22:23:51.309Z,98239.44
2019-05-12T22:28:48.741Z,98236.84
2019-05-12T22:33:40.876Z,98247.95
2019-05-12T22:38:34.981Z,98241.27
2019-05-12T22:43:31.429Z,98246.58
2019-05-12T22:48:29.614Z,98238.32
2019-05-12T22:53:25.785Z,98237.72
2019-05-12T22:58:22.652Z,98238.97
2019-05-12T23:03:15.112Z,98241.00
2019-05-12T23:08:09.866Z,98244.19
2019-05-12T23:13:05.196Z,98243.20
2019-05-12T23:18:00.134Z,98238.62
2019-05-12T23:22:54.789Z,98241.97
2019-05-12T23:27:49.377Z,98251.07
2019-05-12T23:32:51.574Z,98250.41
2019-05-12T23:37:40.387Z,98252.42
2019-05-12T23:42:34.950Z,98240.27
2019-05-12T23:47:29.512Z,98239.77
2019-05-12T23:52:24.171Z,98230.19
2019-05-12T23:57:18.753Z,98220.75
